Time;durP1;ratioP1;P1;durP2;ratioP2;P2;SDS_P1;SDS_P2;PMS_P1;PMS_P2;Temp;Humidity;BMP_temperature;BMP_pressure;BME280_temperature;BME280_humidity;BME280_pressure;Samples;Min_cycle;Max_cycle;Signal;HPM_P1;HPM_P2
2022/10/06 00:00:54;;;;;;;11.15;3.75;;;18.30;96.70;;;;;;5068475;28;20090;-74
2022/10/06 00:03:22;;;;;;;3.78;2.10;;;18.20;96.70;;;;;;5085647;28;20514;-74
2022/10/06 00:05:50;;;;;;;5.00;2.00;;;18.20;96.70;;;;;;5087095;28;20047;-76
2022/10/06 00:08:18;;;;;;;4.00;2.05;;;18.20;96.70;;;;;;5085827;28;20056;-74
2022/10/06 00:10:46;;;;;;;3.85;2.00;;;18.10;96.70;;;;;;5087097;28;20405;-74
2022/10/06 00:13:14;;;;;;;3.85;2.08;;;18.10;96.70;;;;;;5083862;28;20048;-74
2022/10/06 00:15:41;;;;;;;5.18;1.75;;;18.00;96.70;;;;;;5086300;28;20067;-74
2022/10/06 00:18:11;;;;;;;4.90;2.15;;;17.90;96.70;;;;;;5085188;28;20036;-76
2022/10/06 00:20:42;;;;;;;4.13;1.90;;;17.90;96.70;;;;;;5085442;28;20074;-76
2022/10/06 00:23:11;;;;;;;4.70;2.05;;;17.90;96.70;;;;;;5084944;28;20047;-76
2022/10/06 00:25:39;;;;;;;4.38;2.30;;;17.90;96.70;;;;;;5083878;28;20530;-76
2022/10/06 00:28:16;;;;;;;7.28;1.85;;;17.90;96.70;;;;;;5085939;28;20051;-75
2022/10/06 00:30:45;;;;;;;5.32;2.25;;;18.00;96.70;;;;;;5083092;28;20044;-76
2022/10/06 00:33:16;;;;;;;6.10;2.10;;;17.90;96.70;;;;;;5081332;28;20078;-76
2022/10/06 00:35:46;;;;;;;3.60;2.05;;;17.90;96.70;;;;;;5085682;28;20032;-76
2022/10/06 00:38:15;;;;;;;4.20;2.22;;;17.90;96.70;;;;;;5085524;28;20048;-76
2022/10/06 00:40:45;;;;;;;3.15;2.05;;;17.90;96.70;;;;;;5083684;28;20044;-76
2022/10/06 00:43:39;;;;;;;5.82;2.30;;;17.80;96.70;;;;;;5079254;28;20600;-76
2022/10/06 00:46:08;;;;;;;4.97;2.22;;;17.80;96.70;;;;;;5083314;28;20055;-75
2022/10/06 00:48:38;;;;;;;5.88;2.42;;;17.70;96.70;;;;;;5067902;28;20466;-77
2022/10/06 00:51:06;;;;;;;4.95;1.98;;;17.70;96.70;;;;;;5081063;28;20048;-75
2022/10/06 00:53:34;;;;;;;5.20;1.70;;;17.70;96.70;;;;;;5081883;28;20135;-75
2022/10/06 00:56:08;;;;;;;3.30;1.60;;;17.70;96.70;;;;;;5082766;28;20586;-76
2022/10/06 00:58:36;;;;;;;4.85;1.60;;;17.70;96.70;;;;;;5083634;28;20036;-76
2022/10/06 01:01:05;;;;;;;3.28;1.73;;;17.70;96.70;;;;;;5085119;28;20055;-76
2022/10/06 01:03:36;;;;;;;6.35;2.08;;;17.70;96.70;;;;;;5084087;28;20044;-76
2022/10/06 01:06:06;;;;;;;4.15;2.00;;;17.70;96.70;;;;;;5066898;28;20101;-75
2022/10/06 01:08:35;;;;;;;4.22;1.50;;;17.70;96.70;;;;;;5083728;28;20040;-76
2022/10/06 01:11:04;;;;;;;3.92;2.42;;;17.60;96.70;;;;;;5077326;28;20040;-75
2022/10/06 01:13:33;;;;;;;4.63;2.20;;;17.60;96.70;;;;;;5068030;28;20055;-75
2022/10/06 01:16:06;;;;;;;4.78;2.25;;;17.60;96.70;;;;;;5080099;28;20506;-75
2022/10/06 01:18:36;;;;;;;5.05;2.22;;;17.60;96.70;;;;;;5079800;28;20581;-74
2022/10/06 01:21:10;;;;;;;3.72;1.70;;;17.50;96.70;;;;;;5084154;28;20048;-75
2022/10/06 01:23:40;;;;;;;4.45;2.10;;;17.50;96.70;;;;;;5082796;28;20076;-75
2022/10/06 01:26:10;;;;;;;3.85;1.98;;;17.50;96.70;;;;;;5100911;28;20079;-74
2022/10/06 01:28:38;;;;;;;2.67;1.80;;;17.40;96.70;;;;;;5082526;28;20126;-74
2022/10/06 01:31:07;;;;;;;8.13;1.73;;;17.40;96.70;;;;;;5067007;28;20040;-74
2022/10/06 01:33:35;;;;;;;5.45;1.60;;;17.30;96.70;;;;;;5084255;28;20044;-75
2022/10/06 01:36:04;;;;;;;3.05;1.65;;;17.30;96.70;;;;;;5067130;28;20576;-74
2022/10/06 01:38:31;;;;;;;3.28;1.50;;;17.30;96.70;;;;;;5082532;28;20044;-75
2022/10/06 01:41:04;;;;;;;2.90;1.50;;;17.20;96.70;;;;;;5082346;28;20139;-75
2022/10/06 01:43:34;;;;;;;4.20;1.60;;;17.20;96.70;;;;;;5078688;28;20058;-74
2022/10/06 01:46:04;;;;;;;9.23;2.47;;;17.10;96.70;;;;;;5083463;28;20044;-75
2022/10/06 01:48:34;;;;;;;3.13;1.75;;;17.20;96.70;;;;;;5084122;28;20040;-75
2022/10/06 01:51:02;;;;;;;4.90;1.85;;;17.20;96.70;;;;;;5078658;28;20043;-75
2022/10/06 01:53:31;;;;;;;4.80;1.60;;;17.10;96.70;;;;;;5081988;28;20122;-75
2022/10/06 01:55:59;;;;;;;5.95;1.80;;;17.10;96.70;;;;;;5100242;28;20238;-75
2022/10/06 01:58:29;;;;;;;6.88;1.95;;;17.10;96.70;;;;;;5066263;28;20531;-74
2022/10/06 02:01:05;;;;;;;3.78;1.83;;;17.10;96.70;;;;;;5080429;28;20261;-74
2022/10/06 02:03:35;;;;;;;;;;;17.00;96.70;;;;;;5080734;28;20089;-75
2022/10/06 02:06:03;;;;;;;4.75;1.77;;;17.00;96.70;;;;;;5085385;28;19924;-75
2022/10/06 02:08:32;;;;;;;5.40;2.05;;;16.90;96.70;;;;;;5082371;28;20048;-75
2022/10/06 02:11:07;;;;;;;5.57;2.00;;;16.90;96.70;;;;;;5083299;28;20043;-75
2022/10/06 02:13:42;;;;;;;4.18;2.15;;;16.90;96.70;;;;;;5082568;28;20044;-75
2022/10/06 02:16:12;;;;;;;5.95;2.08;;;17.00;96.70;;;;;;5084322;28;20063;-75
2022/10/06 02:18:42;;;;;;;3.50;2.10;;;17.00;96.70;;;;;;5075861;28;20072;-75
2022/10/06 02:21:14;;;;;;;4.88;2.40;;;17.00;96.70;;;;;;5079587;28;20634;-75
2022/10/06 02:23:42;;;;;;;5.18;2.38;;;17.00;96.70;;;;;;5082575;28;20599;-75
2022/10/06 02:26:09;;;;;;;3.80;2.60;;;17.00;96.70;;;;;;5084248;28;20040;-74
2022/10/06 02:28:38;;;;;;;4.70;2.28;;;17.00;96.70;;;;;;5070693;28;20062;-75
2022/10/06 02:31:10;;;;;;;5.38;2.33;;;16.90;96.70;;;;;;5066116;28;20048;-74
2022/10/06 02:33:39;;;;;;;4.47;2.42;;;16.90;96.70;;;;;;5079373;28;20398;-75
2022/10/06 02:36:09;;;;;;;3.50;2.28;;;16.90;96.70;;;;;;5077767;28;20039;-75
2022/10/06 02:38:37;;;;;;;4.40;2.00;;;16.80;96.70;;;;;;5083114;28;20115;-75
2022/10/06 02:41:07;;;;;;;4.72;2.30;;;16.90;96.70;;;;;;5065788;28;20047;-75
2022/10/06 02:43:35;;;;;;;4.82;2.35;;;16.80;96.70;;;;;;5084563;28;20375;-75
2022/10/06 02:46:05;;;;;;;4.22;2.30;;;16.70;96.70;;;;;;5082106;28;20036;-75
2022/10/06 02:48:35;;;;;;;2.97;1.90;;;16.70;96.70;;;;;;5065371;28;20098;-75
2022/10/06 02:51:08;;;;;;;4.25;2.10;;;16.70;96.70;;;;;;5077992;28;20051;-75
2022/10/06 02:53:37;;;;;;;5.68;2.10;;;16.70;96.70;;;;;;5065713;28;20759;-75
2022/10/06 02:56:06;;;;;;;3.38;2.63;;;16.70;96.70;;;;;;5078186;28;20055;-75
2022/10/06 02:58:34;;;;;;;7.40;2.40;;;16.60;96.70;;;;;;5084059;28;20113;-75
2022/10/06 03:01:12;;;;;;;4.50;2.20;;;16.60;96.70;;;;;;5080838;28;20052;-74
2022/10/06 03:03:41;;;;;;;3.90;1.92;;;16.60;96.70;;;;;;5082846;28;20048;-75
2022/10/06 03:06:20;;;;;;;5.15;1.92;;;16.60;96.70;;;;;;5084000;28;20446;-75
2022/10/06 03:09:11;;;;;;;3.08;2.03;;;16.70;96.70;;;;;;5082852;28;20048;-74
2022/10/06 03:11:42;;;;;;;4.32;2.72;;;16.60;96.70;;;;;;5082936;28;20597;-75
2022/10/06 03:14:17;;;;;;;3.65;2.22;;;16.60;96.70;;;;;;5081438;28;20048;-74
2022/10/06 03:16:50;;;;;;;5.18;2.25;;;16.60;96.70;;;;;;5080073;28;20063;-75
2022/10/06 03:19:24;;;;;;;4.00;1.95;;;16.50;96.70;;;;;;5081265;28;20416;-75
2022/10/06 03:21:53;;;;;;;6.63;2.20;;;16.60;96.70;;;;;;5082064;28;20056;-75
2022/10/06 03:24:25;;;;;;;4.35;2.35;;;16.50;96.70;;;;;;5081494;28;20057;-74
2022/10/06 03:26:57;;;;;;;4.10;1.90;;;16.50;96.70;;;;;;5056688;28;20068;-74
2022/10/06 03:29:25;;;;;;;4.43;1.83;;;16.50;96.70;;;;;;5082742;28;20054;-74
2022/10/06 03:31:55;;;;;;;4.75;1.95;;;16.50;96.70;;;;;;5081332;28;20048;-75
2022/10/06 03:34:25;;;;;;;4.40;1.85;;;16.40;96.70;;;;;;5105241;28;20494;-74
2022/10/06 03:36:54;;;;;;;5.53;1.60;;;16.40;96.70;;;;;;5077141;28;20101;-75
2022/10/06 03:39:25;;;;;;;4.63;2.10;;;16.50;96.70;;;;;;5075226;28;20044;-75
2022/10/06 03:41:53;;;;;;;3.42;2.05;;;16.50;96.70;;;;;;5081703;28;20568;-75
2022/10/06 03:44:21;;;;;;;3.00;1.80;;;16.50;96.70;;;;;;5082263;28;20081;-74
2022/10/06 03:46:50;;;;;;;3.13;1.48;;;16.50;96.70;;;;;;5086321;28;20633;-74
2022/10/06 03:49:19;;;;;;;3.33;2.10;;;16.50;96.70;;;;;;5082452;28;20048;-75
2022/10/06 03:51:49;;;;;;;3.03;1.67;;;16.40;96.70;;;;;;5086014;28;20048;-75
2022/10/06 03:54:23;;;;;;;;;;;16.40;96.70;;;;;;5085132;28;20054;-75
2022/10/06 03:56:53;;;;;;;4.03;1.48;;;16.30;96.70;;;;;;5086213;28;19935;-74
2022/10/06 03:59:21;;;;;;;4.20;1.65;;;16.30;96.70;;;;;;5084949;28;20459;-74
2022/10/06 04:01:51;;;;;;;3.90;1.50;;;16.30;96.70;;;;;;5086059;28;20051;-75
2022/10/06 04:04:25;;;;;;;5.10;1.70;;;16.30;96.70;;;;;;5085372;28;20052;-74
2022/10/06 04:07:00;;;;;;;3.30;1.58;;;16.20;96.70;;;;;;5083042;28;20049;-74
2022/10/06 04:09:29;;;;;;;3.00;1.65;;;16.20;96.70;;;;;;5085187;28;20572;-74
2022/10/06 04:11:57;;;;;;;4.10;1.60;;;16.10;96.70;;;;;;5084435;28;20036;-74
2022/10/06 04:14:26;;;;;;;5.03;2.20;;;16.10;96.70;;;;;;5085253;28;20079;-75
2022/10/06 04:16:56;;;;;;;2.15;1.50;;;16.10;96.70;;;;;;5067418;28;20048;-75
2022/10/06 04:19:31;;;;;;;4.27;2.03;;;16.20;96.70;;;;;;5083758;28;20500;-75
2022/10/06 04:22:00;;;;;;;3.00;1.77;;;16.10;96.70;;;;;;5085656;28;20370;-74
2022/10/06 04:24:29;;;;;;;5.43;1.85;;;16.10;96.70;;;;;;5066388;28;20094;-75
2022/10/06 04:27:26;;;;;;;3.92;2.35;;;16.00;96.70;;;;;;5085237;28;20134;-74
2022/10/06 04:30:03;;;;;;;3.28;2.17;;;15.90;96.70;;;;;;5090131;28;20048;-75
2022/10/06 04:32:32;;;;;;;3.33;1.92;;;15.90;96.70;;;;;;5081155;28;21773;-74
2022/10/06 04:35:00;;;;;;;3.65;2.17;;;15.90;96.70;;;;;;5081783;28;20041;-75
2022/10/06 04:37:31;;;;;;;3.22;1.83;;;15.80;96.70;;;;;;5091384;28;20654;-75
2022/10/06 04:40:00;;;;;;;3.67;1.95;;;15.80;96.70;;;;;;5084386;28;20653;-74
2022/10/06 04:42:30;;;;;;;3.30;1.90;;;15.80;96.70;;;;;;5080284;28;20526;-75
2022/10/06 04:45:20;;;;;;;5.88;1.67;;;15.70;96.70;;;;;;5075425;28;20071;-75
2022/10/06 04:47:49;;;;;;;3.70;2.00;;;15.70;96.70;;;;;;5084652;28;20104;-74
2022/10/06 04:50:17;;;;;;;4.32;1.98;;;15.70;96.70;;;;;;5083924;28;20048;-74
2022/10/06 04:53:05;;;;;;;3.90;2.20;;;15.70;96.70;;;;;;5082542;28;20412;-75
2022/10/06 04:55:33;;;;;;;4.05;2.15;;;15.60;96.70;;;;;;5082569;28;20561;-74
2022/10/06 04:58:02;;;;;;;5.85;2.15;;;15.70;96.70;;;;;;5082236;28;20045;-74
2022/10/06 05:00:30;;;;;;;3.40;1.83;;;15.70;96.70;;;;;;5082366;28;20604;-75
2022/10/06 05:02:58;;;;;;;3.00;1.88;;;15.70;96.70;;;;;;5084227;28;20052;-74
2022/10/06 05:05:27;;;;;;;5.15;1.98;;;15.80;96.70;;;;;;5085411;28;20047;-74
2022/10/06 05:07:56;;;;;;;5.93;2.10;;;15.90;96.70;;;;;;5079249;28;20040;-75
2022/10/06 05:10:26;;;;;;;5.68;1.90;;;15.90;96.70;;;;;;5081061;28;20047;-75
2022/10/06 05:12:56;;;;;;;4.47;2.03;;;15.70;96.70;;;;;;5083653;28;20621;-75
2022/10/06 05:15:24;;;;;;;5.65;2.10;;;15.70;96.70;;;;;;5076735;28;20051;-75
2022/10/06 05:17:52;;;;;;;4.40;2.65;;;15.60;96.70;;;;;;5084023;28;20092;-75
2022/10/06 05:20:21;;;;;;;5.55;2.40;;;15.70;96.70;;;;;;5080161;28;20518;-74
2022/10/06 05:22:51;;;;;;;3.10;2.00;;;15.70;96.70;;;;;;5067219;28;20047;-74
2022/10/06 05:25:19;;;;;;;4.40;2.13;;;15.70;96.70;;;;;;5082392;28;20071;-74
2022/10/06 05:27:49;;;;;;;3.22;1.95;;;15.60;96.70;;;;;;5083846;28;20043;-74
2022/10/06 05:30:17;;;;;;;5.10;2.45;;;15.60;96.70;;;;;;5071617;28;20044;-75
2022/10/06 05:32:49;;;;;;;4.38;2.20;;;15.70;96.70;;;;;;5108965;27;20518;-74
2022/10/06 05:35:17;;;;;;;5.93;2.30;;;15.60;96.70;;;;;;5089617;28;20524;-74
2022/10/06 05:37:46;;;;;;;5.78;2.60;;;15.60;96.70;;;;;;5083914;28;20036;-75
2022/10/06 05:40:14;;;;;;;5.28;2.70;;;15.60;96.70;;;;;;5082979;28;20048;-75
2022/10/06 05:42:42;;;;;;;5.68;2.60;;;15.50;96.70;;;;;;5073919;28;20044;-75
2022/10/06 05:45:12;;;;;;;5.05;2.63;;;15.50;96.70;;;;;;5082804;28;20043;-73
2022/10/06 05:47:41;;;;;;;3.53;2.20;;;15.60;96.70;;;;;;5066866;28;20047;-75
2022/10/06 05:50:09;;;;;;;3.95;2.53;;;15.60;96.70;;;;;;5082904;28;20044;-75
2022/10/06 05:52:37;;;;;;;3.38;2.53;;;15.60;96.70;;;;;;5084671;28;20052;-76
2022/10/06 05:55:07;;;;;;;4.28;2.28;;;15.60;96.70;;;;;;5082488;28;20076;-76
2022/10/06 05:57:35;;;;;;;4.03;2.42;;;15.60;96.70;;;;;;5082863;28;20506;-77
2022/10/06 06:00:05;;;;;;;3.15;2.33;;;15.60;96.70;;;;;;5080021;28;20059;-76
2022/10/06 06:02:41;;;;;;;2.10;1.90;;;15.50;96.70;;;;;;5087595;28;20059;-76
2022/10/06 06:05:11;;;;;;;4.53;2.40;;;15.60;96.70;;;;;;5093404;28;20079;-75
2022/10/06 06:07:40;;;;;;;2.75;2.10;;;15.60;96.70;;;;;;5065811;28;20063;-75
2022/10/06 06:10:08;;;;;;;3.00;2.03;;;15.60;96.70;;;;;;5100052;28;20420;-75
2022/10/06 06:12:37;;;;;;;5.50;2.10;;;15.60;96.70;;;;;;5081814;28;20047;-77
2022/10/06 06:18:18;;;;;;;;;;;15.80;96.70;;;;;;5083838;28;20468;-76
2022/10/06 06:20:55;;;;;;;4.03;2.00;;;15.90;96.70;;;;;;5094037;28;20377;-76
2022/10/06 06:23:35;;;;;;;7.60;2.47;;;15.90;96.70;;;;;;5081747;28;20497;-76
2022/10/06 06:26:08;;;;;;;4.93;2.10;;;16.00;96.70;;;;;;5083121;28;20092;-76
2022/10/06 06:28:41;;;;;;;3.95;2.92;;;16.00;96.70;;;;;;5083079;28;20141;-75
2022/10/06 06:31:13;;;;;;;7.45;4.60;;;16.00;96.70;;;;;;5081792;28;20780;-75
2022/10/06 06:33:51;;;;;;;8.75;5.20;;;16.00;96.70;;;;;;5080497;28;20045;-75
2022/10/06 06:36:23;;;;;;;10.75;5.20;;;16.00;96.70;;;;;;5065296;28;20703;-76
2022/10/06 06:38:54;;;;;;;11.88;6.45;;;16.00;96.70;;;;;;5065698;28;20136;-76
2022/10/06 06:41:24;;;;;;;9.82;4.68;;;16.00;96.70;;;;;;5083545;28;20072;-76
2022/10/06 06:44:00;;;;;;;9.30;4.43;;;16.10;96.70;;;;;;5082572;28;20059;-76
2022/10/06 06:46:37;;;;;;;6.18;4.13;;;16.10;96.70;;;;;;5081950;28;20120;-76
2022/10/06 06:49:14;;;;;;;5.80;3.83;;;16.20;96.70;;;;;;5074750;28;20048;-76
2022/10/06 06:51:51;;;;;;;5.13;3.30;;;16.20;96.70;;;;;;5081944;28;20135;-76
2022/10/06 06:54:22;;;;;;;7.32;3.65;;;16.30;96.70;;;;;;5081285;28;20147;-76
2022/10/06 06:56:56;;;;;;;6.35;3.28;;;16.30;96.70;;;;;;5065356;28;20040;-76
2022/10/06 06:59:25;;;;;;;3.20;2.50;;;16.40;96.70;;;;;;5082603;28;20047;-76
2022/10/06 07:01:56;;;;;;;7.60;3.38;;;16.40;96.70;;;;;;5065780;28;20310;-76
2022/10/06 07:04:29;;;;;;;4.13;3.00;;;16.50;96.70;;;;;;5082156;28;20040;-76
2022/10/06 07:06:57;;;;;;;4.43;2.63;;;16.60;96.70;;;;;;5082839;28;20097;-78
2022/10/06 07:09:29;;;;;;;6.88;2.70;;;16.60;96.70;;;;;;5079297;28;20036;-76
2022/10/06 07:12:17;;;;;;;6.85;3.25;;;16.70;96.70;;;;;;5082116;28;20455;-76
2022/10/06 07:26:11;;;;;;;7.28;5.53;;;17.20;96.70;;;;;;5086775;28;20050;-76
2022/10/06 07:28:41;;;;;;;9.57;5.68;;;17.30;96.70;;;;;;5087447;28;20252;-75
2022/10/06 07:31:11;;;;;;;12.43;6.88;;;17.30;96.70;;;;;;5085784;28;20081;-76
2022/10/06 07:33:40;;;;;;;10.00;6.28;;;17.40;96.70;;;;;;5085675;28;20501;-77
2022/10/06 07:36:11;;;;;;;9.30;6.50;;;17.40;96.70;;;;;;5086178;28;20051;-76
2022/10/06 07:38:40;;;;;;;9.55;6.90;;;17.40;96.70;;;;;;5084133;28;20051;-75
2022/10/06 07:41:08;;;;;;;11.32;6.65;;;17.50;96.70;;;;;;5068830;28;20455;-77
2022/10/06 07:43:58;;;;;;;7.47;5.50;;;17.60;96.70;;;;;;5082762;28;20047;-76
2022/10/06 07:46:33;;;;;;;9.13;5.15;;;17.70;96.70;;;;;;5071583;28;20745;-76
2022/10/06 07:49:11;;;;;;;8.43;4.53;;;17.80;96.70;;;;;;5084370;28;20052;-78
2022/10/06 07:51:41;;;;;;;9.18;4.40;;;17.90;96.70;;;;;;5086079;28;20691;-75
2022/10/06 07:54:09;;;;;;;7.38;4.43;;;18.00;96.70;;;;;;5101196;28;20144;-77
2022/10/06 07:57:04;;;;;;;7.32;4.25;;;18.10;96.70;;;;;;5088791;28;20050;-75
2022/10/06 07:59:33;;;;;;;6.55;4.30;;;18.20;96.70;;;;;;5081490;28;20043;-76
2022/10/06 08:02:01;;;;;;;6.35;4.05;;;18.30;96.70;;;;;;5069416;28;20425;-78
2022/10/06 08:04:29;;;;;;;7.50;3.88;;;18.30;96.70;;;;;;5086537;28;20784;-77
2022/10/06 08:06:58;;;;;;;9.15;4.22;;;18.40;96.70;;;;;;5081855;28;20041;-76
2022/10/06 08:09:26;;;;;;;7.78;3.97;;;18.40;96.70;;;;;;5085185;28;20051;-76
2022/10/06 08:11:54;;;;;;;6.57;3.92;;;18.50;96.70;;;;;;5084114;28;20064;-76
2022/10/06 08:14:23;;;;;;;6.25;3.60;;;18.60;96.70;;;;;;5085168;28;20101;-75
2022/10/06 08:16:51;;;;;;;7.43;4.05;;;18.60;96.70;;;;;;5101316;28;20059;-76
2022/10/06 08:19:19;;;;;;;5.65;4.15;;;18.70;96.70;;;;;;5083012;28;20508;-76
2022/10/06 08:21:47;;;;;;;6.13;3.78;;;18.70;96.70;;;;;;5083910;28;20055;-77
2022/10/06 08:24:18;;;;;;;6.45;3.90;;;18.80;96.70;;;;;;5085743;28;20488;-77
2022/10/06 08:26:46;;;;;;;8.10;4.50;;;18.90;96.70;;;;;;5083079;28;20067;-76
2022/10/06 08:29:14;;;;;;;6.03;4.20;;;19.00;96.70;;;;;;5077038;28;20044;-76
2022/10/06 08:31:41;;;;;;;7.88;5.03;;;19.00;96.70;;;;;;5084604;28;20071;-77
2022/10/06 08:34:10;;;;;;;7.18;4.35;;;19.10;96.70;;;;;;5083471;28;20067;-75
2022/10/06 08:36:38;;;;;;;7.85;5.57;;;19.10;96.70;;;;;;5068043;28;20047;-76
2022/10/06 08:39:06;;;;;;;10.13;5.90;;;19.20;96.70;;;;;;5084650;28;20047;-76
2022/10/06 08:41:42;;;;;;;8.55;5.68;;;19.10;96.70;;;;;;5084414;28;20064;-75
2022/10/06 08:44:20;;;;;;;9.18;5.75;;;19.20;96.70;;;;;;5084629;28;20048;-77
2022/10/06 08:46:54;;;;;;;8.70;5.60;;;19.30;96.70;;;;;;5080363;28;20050;-75
2022/10/06 08:49:24;;;;;;;7.80;5.90;;;19.40;96.70;;;;;;5084520;28;20040;-76
2022/10/06 08:51:59;;;;;;;7.82;6.57;;;19.50;96.70;;;;;;5079505;28;20040;-76
2022/10/06 08:54:36;;;;;;;10.70;6.00;;;19.60;96.70;;;;;;5085703;28;20078;-75
2022/10/06 08:57:13;;;;;;;9.82;5.50;;;19.60;96.70;;;;;;5083650;28;20032;-75
2022/10/06 08:59:45;;;;;;;8.63;5.40;;;19.60;96.70;;;;;;5084146;28;20044;-76
2022/10/06 09:02:25;;;;;;;9.02;5.68;;;19.60;96.70;;;;;;5083071;28;20054;-75
2022/10/06 09:04:55;;;;;;;12.55;5.13;;;19.70;96.70;;;;;;5093700;28;20048;-75
2022/10/06 09:07:31;;;;;;;8.02;4.57;;;19.80;96.70;;;;;;5080461;28;20571;-75
2022/10/06 09:10:20;;;;;;;10.25;4.68;;;19.90;96.70;;;;;;5076747;28;20174;-75
2022/10/06 09:12:56;;;;;;;6.47;4.07;;;19.90;96.70;;;;;;5080823;28;20533;-76
2022/10/06 09:15:32;;;;;;;5.13;3.45;;;20.00;96.70;;;;;;5081038;28;20049;-75
2022/10/06 09:18:09;;;;;;;6.38;3.30;;;20.10;96.70;;;;;;5080011;28;20050;-75
2022/10/06 09:20:43;;;;;;;9.85;4.00;;;20.20;96.70;;;;;;5084879;28;20044;-75
2022/10/06 09:23:15;;;;;;;6.78;3.28;;;20.40;96.70;;;;;;5082809;28;20131;-75
2022/10/06 09:25:43;;;;;;;3.10;2.80;;;20.50;96.70;;;;;;5084997;28;20042;-76
2022/10/06 09:28:15;;;;;;;5.88;3.60;;;20.60;96.70;;;;;;5084309;28;20101;-76
2022/10/06 09:30:42;;;;;;;5.13;3.08;;;20.60;96.70;;;;;;5079377;28;20516;-73
2022/10/06 09:33:18;;;;;;;4.60;2.80;;;20.60;96.70;;;;;;5085847;28;20125;-74
2022/10/06 09:36:08;;;;;;;4.80;3.07;;;20.70;96.70;;;;;;5098969;28;20040;-75
2022/10/06 09:38:52;;;;;;;7.05;2.95;;;20.60;96.70;;;;;;5080048;28;20290;-74
2022/10/06 09:41:24;;;;;;;4.25;2.67;;;20.60;96.70;;;;;;5084008;28;20489;-74
2022/10/06 09:43:56;;;;;;;4.28;2.88;;;20.70;96.70;;;;;;5081784;28;20451;-75
2022/10/06 09:46:32;;;;;;;5.00;2.88;;;20.90;96.70;;;;;;5085727;28;20424;-74
2022/10/06 09:49:17;;;;;;;6.82;2.88;;;21.20;96.70;;;;;;5083373;28;20067;-75
2022/10/06 09:51:59;;;;;;;5.13;3.17;;;21.10;96.70;;;;;;5084688;28;20044;-75
2022/10/06 09:54:28;;;;;;;5.55;2.95;;;21.00;96.70;;;;;;5079306;28;20074;-74
2022/10/06 09:56:58;;;;;;;5.72;3.20;;;21.00;96.70;;;;;;5078603;28;20071;-74
2022/10/06 09:59:32;;;;;;;5.53;3.30;;;21.10;96.70;;;;;;5079084;28;20595;-75
2022/10/06 10:02:29;;;;;;;4.80;2.63;;;21.20;96.70;;;;;;5063323;28;20072;-75
2022/10/06 10:04:57;;;;;;;6.43;3.47;;;21.30;96.70;;;;;;5082311;28;20152;-74
2022/10/06 10:07:26;;;;;;;4.38;3.08;;;21.40;96.70;;;;;;5082665;28;20132;-74
2022/10/06 10:10:18;;;;;;;4.90;3.60;;;21.50;96.70;;;;;;5084210;28;20048;-74
2022/10/06 10:12:49;;;;;;;8.40;3.55;;;21.60;96.70;;;;;;5083666;28;20044;-74
2022/10/06 10:15:29;;;;;;;7.03;3.22;;;21.60;96.70;;;;;;5078264;28;20067;-74
2022/10/06 10:17:59;;;;;;;3.90;2.88;;;21.60;96.70;;;;;;5081350;28;20040;-74
2022/10/06 10:20:35;;;;;;;3.97;2.85;;;21.70;96.70;;;;;;5080382;28;20284;-75
2022/10/06 10:23:17;;;;;;;5.47;3.03;;;21.70;96.70;;;;;;5082620;28;20405;-75
2022/10/06 10:26:11;;;;;;;5.45;2.63;;;21.80;96.70;;;;;;5067186;28;20098;-75
2022/10/06 10:29:02;;;;;;;7.00;3.28;;;21.80;96.70;;;;;;5096049;28;20047;-75
2022/10/06 10:31:41;;;;;;;4.82;3.08;;;21.80;96.70;;;;;;5082813;28;20054;-75
2022/10/06 10:34:22;;;;;;;8.10;2.72;;;21.70;96.70;;;;;;5082299;28;20044;-75
2022/10/06 10:36:56;;;;;;;3.63;2.13;;;21.80;96.70;;;;;;5079991;28;20521;-75
2022/10/06 10:39:30;;;;;;;5.45;2.65;;;21.90;96.70;;;;;;5082252;28;20051;-75
2022/10/06 10:42:01;;;;;;;6.18;2.45;;;22.00;96.70;;;;;;5076560;28;20056;-76
2022/10/06 10:44:33;;;;;;;4.13;2.38;;;22.10;96.70;;;;;;5078941;28;20051;-76
2022/10/06 10:47:13;;;;;;;4.68;2.33;;;22.30;96.70;;;;;;5081709;28;20052;-74
2022/10/06 10:49:57;;;;;;;4.00;2.28;;;22.40;96.70;;;;;;5079810;28;20063;-75
2022/10/06 10:52:30;;;;;;;4.57;2.30;;;22.40;96.70;;;;;;5081448;28;20054;-76
2022/10/06 10:55:10;;;;;;;8.63;2.38;;;22.40;96.70;;;;;;5083156;28;20040;-74
2022/10/06 10:57:42;;;;;;;3.13;1.88;;;22.50;96.70;;;;;;5081085;28;20044;-74
2022/10/06 11:00:18;;;;;;;3.42;2.08;;;22.70;96.70;;;;;;5065880;28;20543;-74
2022/10/06 11:02:48;;;;;;;4.60;2.13;;;22.80;96.70;;;;;;5081736;28;20036;-74
2022/10/06 11:05:37;;;;;;;3.83;1.60;;;22.90;96.70;;;;;;5081228;28;20521;-74
2022/10/06 11:08:12;;;;;;;3.75;1.55;;;22.80;96.70;;;;;;5083674;28;20047;-73
2022/10/06 11:10:46;;;;;;;2.92;1.30;;;22.90;96.70;;;;;;5081826;28;20044;-74
2022/10/06 11:13:22;;;;;;;4.40;1.58;;;23.00;96.70;;;;;;5082219;28;20056;-74
2022/10/06 11:16:13;;;;;;;6.30;1.52;;;23.00;96.70;;;;;;5081445;28;20048;-75
2022/10/06 11:18:58;;;;;;;2.05;0.88;;;23.00;96.70;;;;;;5080621;28;20669;-74
2022/10/06 11:21:31;;;;;;;9.43;1.05;;;23.00;96.70;;;;;;5081680;28;20048;-75
2022/10/06 11:24:08;;;;;;;4.25;1.17;;;23.20;96.70;;;;;;5077614;28;20161;-77
2022/10/06 11:26:58;;;;;;;1.75;1.08;;;23.10;96.70;;;;;;5080037;28;20470;-77
2022/10/06 11:29:35;;;;;;;3.15;1.30;;;23.10;96.70;;;;;;5080424;28;20047;-77
2022/10/06 11:32:16;;;;;;;3.50;1.33;;;23.20;96.70;;;;;;5080563;28;20146;-77
2022/10/06 11:34:48;;;;;;;3.00;1.50;;;23.20;96.70;;;;;;5081215;28;20097;-76
2022/10/06 11:37:30;;;;;;;1.67;0.80;;;23.10;96.70;;;;;;5081961;28;20039;-77
2022/10/06 11:40:15;;;;;;;3.15;1.20;;;23.30;96.70;;;;;;5081298;28;20060;-75
2022/10/06 11:42:47;;;;;;;2.25;1.00;;;23.70;96.70;;;;;;5102205;28;20139;-76
2022/10/06 11:45:16;;;;;;;2.20;1.17;;;23.90;96.70;;;;;;5079831;28;20048;-76
2022/10/06 11:48:03;;;;;;;1.52;0.68;;;23.90;96.70;;;;;;5063871;28;20453;-77
2022/10/06 11:50:35;;;;;;;1.70;0.70;;;24.10;96.70;;;;;;5076941;28;20199;-77
2022/10/06 11:53:04;;;;;;;2.30;0.68;;;24.40;96.70;;;;;;5083129;28;20052;-75
2022/10/06 11:55:32;;;;;;;2.53;0.90;;;24.60;96.70;;;;;;5081140;28;20144;-75
2022/10/06 11:58:15;;;;;;;4.72;0.85;;;24.70;96.70;;;;;;5080640;28;20094;-75
2022/10/06 12:01:03;;;;;;;1.92;0.75;;;24.90;96.70;;;;;;5077238;28;20047;-77
2022/10/06 12:04:11;;;;;;;2.05;0.80;;;25.10;96.70;;;;;;5079046;28;20089;-77
2022/10/06 12:06:59;;;;;;;1.88;0.90;;;25.10;96.70;;;;;;5082200;28;20051;-77
2022/10/06 12:09:47;;;;;;;1.75;0.65;;;25.30;96.70;;;;;;5085003;28;20048;-76
2022/10/06 12:12:42;;;;;;;2.25;0.90;;;25.40;96.70;;;;;;5079806;28;20052;-76
2022/10/06 12:15:26;;;;;;;2.55;0.80;;;25.40;96.70;;;;;;5084571;28;20427;-78
2022/10/06 12:18:36;;;;;;;2.90;0.55;;;25.40;96.70;;;;;;5082601;28;20103;-78
2022/10/06 12:21:31;;;;;;;1.63;0.70;;;25.50;96.70;;;;;;5081035;28;20055;-77
2022/10/06 12:24:15;;;;;;;2.35;0.80;;;25.60;96.70;;;;;;5080793;28;20145;-76
2022/10/06 12:27:01;;;;;;;1.27;0.77;;;25.70;96.70;;;;;;5084171;28;20048;-76
2022/10/06 12:29:40;;;;;;;2.42;0.77;;;25.80;96.70;;;;;;5080965;28;20098;-75
2022/10/06 12:32:24;;;;;;;2.63;0.77;;;25.90;96.70;;;;;;5083413;28;20131;-76
2022/10/06 12:34:59;;;;;;;1.88;0.70;;;26.10;96.70;;;;;;5079132;28;20064;-77
2022/10/06 12:37:45;;;;;;;2.83;0.60;;;26.20;96.70;;;;;;5083571;28;20055;-76
2022/10/06 12:40:48;;;;;;;1.75;1.10;;;26.30;96.70;;;;;;5082652;28;20102;-76
2022/10/06 12:43:28;;;;;;;1.85;0.60;;;26.50;96.70;;;;;;5083113;28;20070;-76
2022/10/06 12:45:59;;;;;;;3.35;0.93;;;26.50;96.70;;;;;;5095793;28;20520;-76
2022/10/06 12:48:35;;;;;;;2.85;0.70;;;26.60;96.70;;;;;;5085501;28;20035;-76
2022/10/06 12:51:09;;;;;;;1.83;0.68;;;26.70;96.70;;;;;;5083307;28;20040;-76
2022/10/06 12:53:48;;;;;;;4.72;0.80;;;26.80;96.70;;;;;;5078390;28;20072;-77
2022/10/06 12:56:27;;;;;;;1.13;0.68;;;26.70;96.70;;;;;;5083949;28;20047;-77
2022/10/06 12:58:55;;;;;;;2.40;0.77;;;26.70;96.70;;;;;;5083029;28;20728;-76
2022/10/06 13:01:26;;;;;;;3.40;0.70;;;26.70;96.70;;;;;;5082230;28;20129;-75
2022/10/06 13:03:54;;;;;;;3.38;1.02;;;26.80;96.70;;;;;;5076593;28;20044;-78
2022/10/06 13:06:24;;;;;;;2.58;0.70;;;26.70;96.70;;;;;;5083608;28;20048;-78
2022/10/06 13:09:12;;;;;;;2.28;0.80;;;26.60;96.70;;;;;;5084002;28;20040;-74
2022/10/06 13:11:41;;;;;;;2.67;0.60;;;26.50;96.70;;;;;;5084759;28;20028;-75
2022/10/06 13:14:12;;;;;;;2.53;0.80;;;26.40;96.70;;;;;;5082816;28;20127;-77
2022/10/06 13:16:43;;;;;;;2.20;0.60;;;26.50;96.70;;;;;;5081671;28;20055;-76
2022/10/06 13:19:18;;;;;;;2.58;0.68;;;26.70;96.70;;;;;;5083728;28;20139;-76
2022/10/06 13:21:47;;;;;;;2.22;0.73;;;26.60;96.70;;;;;;5082683;28;20113;-76
2022/10/06 13:24:20;;;;;;;3.33;0.90;;;26.50;96.70;;;;;;5085017;28;20032;-76
2022/10/06 13:26:50;;;;;;;1.85;0.70;;;26.50;96.70;;;;;;5081515;28;20047;-76
2022/10/06 13:29:20;;;;;;;2.28;0.73;;;26.60;96.70;;;;;;5080497;28;20040;-76
2022/10/06 13:31:50;;;;;;;1.55;0.50;;;26.70;96.70;;;;;;5082055;28;20394;-76
2022/10/06 13:34:27;;;;;;;2.42;0.68;;;26.80;96.70;;;;;;5081061;28;20052;-76